sensor_id;sensor_type;location;lat;lon;timestamp;P1;durP1;ratioP1;P2;durP2;ratioP2
40827;SDS011;26549;50.918;5.338;2022-10-29T00:01:50;12.20;;;3.90;;
40827;SDS011;26549;50.918;5.338;2022-10-29T00:04:16;10.60;;;3.88;;
40827;SDS011;26549;50.918;5.338;2022-10-29T00:06:42;8.35;;;4.18;;
40827;SDS011;26549;50.918;5.338;2022-10-29T00:09:08;19.92;;;5.75;;
40827;SDS011;26549;50.918;5.338;2022-10-29T00:11:35;11.38;;;4.55;;
40827;SDS011;26549;50.918;5.338;2022-10-29T00:14:01;13.07;;;4.72;;
40827;SDS011;26549;50.918;5.338;2022-10-29T00:16:28;12.23;;;4.88;;
40827;SDS011;26549;50.918;5.338;2022-10-29T00:18:59;11.95;;;4.95;;
40827;SDS011;26549;50.918;5.338;2022-10-29T00:21:25;15.68;;;4.82;;
40827;SDS011;26549;50.918;5.338;2022-10-29T00:23:51;13.13;;;3.85;;
40827;SDS011;26549;50.918;5.338;2022-10-29T00:26:20;12.50;;;4.60;;
40827;SDS011;26549;50.918;5.338;2022-10-29T00:28:47;12.60;;;4.45;;
40827;SDS011;26549;50.918;5.338;2022-10-29T00:31:16;11.38;;;3.90;;
40827;SDS011;26549;50.918;5.338;2022-10-29T00:33:43;10.32;;;4.95;;
40827;SDS011;26549;50.918;5.338;2022-10-29T00:36:10;15.45;;;4.80;;
40827;SDS011;26549;50.918;5.338;2022-10-29T00:38:40;18.00;;;5.10;;
40827;SDS011;26549;50.918;5.338;2022-10-29T00:41:06;16.23;;;4.68;;
40827;SDS011;26549;50.918;5.338;2022-10-29T00:43:35;15.85;;;4.32;;
40827;SDS011;26549;50.918;5.338;2022-10-29T00:48:35;17.25;;;5.47;;
40827;SDS011;26549;50.918;5.338;2022-10-29T00:51:08;11.27;;;4.45;;
40827;SDS011;26549;50.918;5.338;2022-10-29T00:53:39;13.63;;;4.60;;
40827;SDS011;26549;50.918;5.338;2022-10-29T00:56:15;9.13;;;3.85;;
40827;SDS011;26549;50.918;5.338;2022-10-29T00:58:41;10.25;;;4.80;;
40827;SDS011;26549;50.918;5.338;2022-10-29T01:01:07;10.70;;;5.13;;
40827;SDS011;26549;50.918;5.338;2022-10-29T01:03:35;8.48;;;4.30;;
40827;SDS011;26549;50.918;5.338;2022-10-29T01:06:01;12.20;;;4.90;;
40827;SDS011;26549;50.918;5.338;2022-10-29T01:08:29;16.75;;;5.60;;
40827;SDS011;26549;50.918;5.338;2022-10-29T01:16:46;10.35;;;4.88;;
40827;SDS011;26549;50.918;5.338;2022-10-29T01:25:06;12.75;;;5.93;;
40827;SDS011;26549;50.918;5.338;2022-10-29T01:36:09;9.60;;;5.07;;
40827;SDS011;26549;50.918;5.338;2022-10-29T01:41:22;11.63;;;6.00;;
40827;SDS011;26549;50.918;5.338;2022-10-29T01:44:02;13.35;;;6.18;;
40827;SDS011;26549;50.918;5.338;2022-10-29T01:46:48;13.93;;;5.78;;
40827;SDS011;26549;50.918;5.338;2022-10-29T01:49:21;15.98;;;5.90;;
40827;SDS011;26549;50.918;5.338;2022-10-29T01:51:53;8.25;;;4.93;;
40827;SDS011;26549;50.918;5.338;2022-10-29T01:54:22;12.45;;;4.78;;
40827;SDS011;26549;50.918;5.338;2022-10-29T01:56:56;13.70;;;5.35;;
40827;SDS011;26549;50.918;5.338;2022-10-29T02:10:14;14.05;;;5.57;;
40827;SDS011;26549;50.918;5.338;2022-10-29T02:12:39;10.93;;;5.53;;
40827;SDS011;26549;50.918;5.338;2022-10-29T02:15:51;11.50;;;5.20;;
40827;SDS011;26549;50.918;5.338;2022-10-29T02:18:07;10.30;;;5.25;;
40827;SDS011;26549;50.918;5.338;2022-10-29T02:20:40;11.00;;;6.03;;
40827;SDS011;26549;50.918;5.338;2022-10-29T02:23:06;11.52;;;4.97;;
40827;SDS011;26549;50.918;5.338;2022-10-29T02:25:32;12.85;;;5.50;;
40827;SDS011;26549;50.918;5.338;2022-10-29T02:27:59;8.35;;;4.93;;
40827;SDS011;26549;50.918;5.338;2022-10-29T02:30:26;13.07;;;5.72;;
40827;SDS011;26549;50.918;5.338;2022-10-29T02:32:52;12.70;;;5.50;;
40827;SDS011;26549;50.918;5.338;2022-10-29T02:35:21;14.93;;;5.38;;
40827;SDS011;26549;50.918;5.338;2022-10-29T02:37:47;11.98;;;5.75;;
40827;SDS011;26549;50.918;5.338;2022-10-29T02:40:13;14.90;;;6.45;;
40827;SDS011;26549;50.918;5.338;2022-10-29T02:42:39;13.73;;;6.15;;
40827;SDS011;26549;50.918;5.338;2022-10-29T02:45:05;11.32;;;4.60;;
40827;SDS011;26549;50.918;5.338;2022-10-29T02:47:32;10.80;;;5.00;;
40827;SDS011;26549;50.918;5.338;2022-10-29T02:49:58;13.18;;;7.00;;
40827;SDS011;26549;50.918;5.338;2022-10-29T02:52:24;9.45;;;4.45;;
40827;SDS011;26549;50.918;5.338;2022-10-29T02:54:51;9.68;;;4.95;;
40827;SDS011;26549;50.918;5.338;2022-10-29T02:57:17;14.05;;;6.22;;
40827;SDS011;26549;50.918;5.338;2022-10-29T02:59:43;13.55;;;4.85;;
40827;SDS011;26549;50.918;5.338;2022-10-29T03:02:10;8.90;;;5.55;;
40827;SDS011;26549;50.918;5.338;2022-10-29T03:04:35;18.58;;;6.45;;
40827;SDS011;26549;50.918;5.338;2022-10-29T03:07:03;13.07;;;5.82;;
40827;SDS011;26549;50.918;5.338;2022-10-29T03:09:29;7.32;;;4.28;;
40827;SDS011;26549;50.918;5.338;2022-10-29T03:11:55;8.25;;;5.45;;
40827;SDS011;26549;50.918;5.338;2022-10-29T03:14:22;12.52;;;6.03;;
40827;SDS011;26549;50.918;5.338;2022-10-29T03:16:48;8.95;;;5.60;;
40827;SDS011;26549;50.918;5.338;2022-10-29T03:19:15;15.18;;;4.90;;
40827;SDS011;26549;50.918;5.338;2022-10-29T03:21:40;12.35;;;5.63;;
40827;SDS011;26549;50.918;5.338;2022-10-29T03:24:06;14.30;;;5.07;;
40827;SDS011;26549;50.918;5.338;2022-10-29T03:26:32;13.93;;;7.32;;
40827;SDS011;26549;50.918;5.338;2022-10-29T03:28:57;15.27;;;5.43;;
40827;SDS011;26549;50.918;5.338;2022-10-29T03:31:23;11.98;;;5.85;;
40827;SDS011;26549;50.918;5.338;2022-10-29T03:33:50;13.20;;;6.57;;
40827;SDS011;26549;50.918;5.338;2022-10-29T03:36:16;12.63;;;5.82;;
40827;SDS011;26549;50.918;5.338;2022-10-29T03:38:43;12.80;;;6.68;;
40827;SDS011;26549;50.918;5.338;2022-10-29T03:41:12;11.55;;;5.57;;
40827;SDS011;26549;50.918;5.338;2022-10-29T03:43:39;9.65;;;5.10;;
40827;SDS011;26549;50.918;5.338;2022-10-29T03:46:05;14.20;;;5.40;;
40827;SDS011;26549;50.918;5.338;2022-10-29T03:48:38;11.88;;;5.38;;
40827;SDS011;26549;50.918;5.338;2022-10-29T03:51:04;10.20;;;4.63;;
40827;SDS011;26549;50.918;5.338;2022-10-29T03:53:30;9.95;;;5.15;;
40827;SDS011;26549;50.918;5.338;2022-10-29T03:55:58;16.13;;;6.32;;
40827;SDS011;26549;50.918;5.338;2022-10-29T03:58:24;15.02;;;6.15;;
40827;SDS011;26549;50.918;5.338;2022-10-29T04:03:26;13.15;;;6.28;;
40827;SDS011;26549;50.918;5.338;2022-10-29T04:05:55;9.35;;;5.47;;
40827;SDS011;26549;50.918;5.338;2022-10-29T04:08:21;12.60;;;5.55;;
40827;SDS011;26549;50.918;5.338;2022-10-29T04:10:47;9.85;;;5.47;;
40827;SDS011;26549;50.918;5.338;2022-10-29T04:13:15;14.50;;;6.05;;
40827;SDS011;26549;50.918;5.338;2022-10-29T04:15:43;9.45;;;5.35;;
40827;SDS011;26549;50.918;5.338;2022-10-29T04:18:10;14.73;;;7.18;;
40827;SDS011;26549;50.918;5.338;2022-10-29T04:20:37;9.95;;;5.25;;
40827;SDS011;26549;50.918;5.338;2022-10-29T04:23:06;9.30;;;4.70;;
40827;SDS011;26549;50.918;5.338;2022-10-29T04:25:33;9.95;;;4.70;;
40827;SDS011;26549;50.918;5.338;2022-10-29T04:28:01;15.27;;;5.63;;
40827;SDS011;26549;50.918;5.338;2022-10-29T04:32:56;13.52;;;5.40;;
40827;SDS011;26549;50.918;5.338;2022-10-29T04:35:25;12.48;;;5.15;;
40827;SDS011;26549;50.918;5.338;2022-10-29T04:37:52;13.48;;;6.13;;
40827;SDS011;26549;50.918;5.338;2022-10-29T04:40:23;8.50;;;4.72;;
40827;SDS011;26549;50.918;5.338;2022-10-29T04:42:50;17.27;;;5.40;;
40827;SDS011;26549;50.918;5.338;2022-10-29T04:45:17;15.40;;;6.90;;
40827;SDS011;26549;50.918;5.338;2022-10-29T04:47:44;12.45;;;5.95;;
40827;SDS011;26549;50.918;5.338;2022-10-29T04:50:10;17.20;;;7.25;;
40827;SDS011;26549;50.918;5.338;2022-10-29T04:52:36;16.70;;;6.57;;
40827;SDS011;26549;50.918;5.338;2022-10-29T04:55:02;15.95;;;6.07;;
40827;SDS011;26549;50.918;5.338;2022-10-29T04:57:29;12.77;;;5.00;;
40827;SDS011;26549;50.918;5.338;2022-10-29T04:59:56;8.80;;;4.93;;
40827;SDS011;26549;50.918;5.338;2022-10-29T05:02:23;17.25;;;5.70;;
40827;SDS011;26549;50.918;5.338;2022-10-29T05:04:48;17.33;;;6.78;;
40827;SDS011;26549;50.918;5.338;2022-10-29T05:07:15;11.20;;;5.13;;
40827;SDS011;26549;50.918;5.338;2022-10-29T05:09:42;11.23;;;5.30;;
40827;SDS011;26549;50.918;5.338;2022-10-29T05:12:08;11.75;;;5.85;;
40827;SDS011;26549;50.918;5.338;2022-10-29T05:14:35;13.52;;;6.53;;
40827;SDS011;26549;50.918;5.338;2022-10-29T05:17:01;12.75;;;5.65;;
40827;SDS011;26549;50.918;5.338;2022-10-29T05:19:26;12.00;;;5.00;;
40827;SDS011;26549;50.918;5.338;2022-10-29T05:21:52;12.05;;;5.60;;
40827;SDS011;26549;50.918;5.338;2022-10-29T05:24:18;17.77;;;5.47;;
40827;SDS011;26549;50.918;5.338;2022-10-29T05:26:43;15.35;;;5.75;;
40827;SDS011;26549;50.918;5.338;2022-10-29T05:29:10;16.55;;;7.20;;
40827;SDS011;26549;50.918;5.338;2022-10-29T05:31:36;14.27;;;5.93;;
40827;SDS011;26549;50.918;5.338;2022-10-29T05:34:01;14.18;;;5.18;;
40827;SDS011;26549;50.918;5.338;2022-10-29T05:36:28;13.57;;;5.35;;
40827;SDS011;26549;50.918;5.338;2022-10-29T05:38:54;11.05;;;4.70;;
40827;SDS011;26549;50.918;5.338;2022-10-29T05:41:20;12.30;;;5.82;;
40827;SDS011;26549;50.918;5.338;2022-10-29T05:43:50;11.90;;;5.38;;
40827;SDS011;26549;50.918;5.338;2022-10-29T05:46:16;9.18;;;5.30;;
40827;SDS011;26549;50.918;5.338;2022-10-29T05:48:43;11.02;;;5.40;;
40827;SDS011;26549;50.918;5.338;2022-10-29T05:51:09;12.95;;;5.97;;
40827;SDS011;26549;50.918;5.338;2022-10-29T05:53:35;14.32;;;5.32;;
40827;SDS011;26549;50.918;5.338;2022-10-29T05:56:01;14.95;;;4.72;;
40827;SDS011;26549;50.918;5.338;2022-10-29T05:58:26;13.80;;;5.55;;
40827;SDS011;26549;50.918;5.338;2022-10-29T06:00:53;11.00;;;5.18;;
40827;SDS011;26549;50.918;5.338;2022-10-29T06:03:20;13.57;;;4.78;;
40827;SDS011;26549;50.918;5.338;2022-10-29T06:05:47;14.32;;;6.40;;
40827;SDS011;26549;50.918;5.338;2022-10-29T06:08:14;11.18;;;5.30;;
40827;SDS011;26549;50.918;5.338;2022-10-29T06:10:41;21.48;;;6.00;;
40827;SDS011;26549;50.918;5.338;2022-10-29T06:13:11;17.30;;;5.20;;
40827;SDS011;26549;50.918;5.338;2022-10-29T06:15:39;14.23;;;4.78;;
40827;SDS011;26549;50.918;5.338;2022-10-29T06:18:06;9.98;;;5.18;;
40827;SDS011;26549;50.918;5.338;2022-10-29T06:20:31;17.58;;;5.97;;
40827;SDS011;26549;50.918;5.338;2022-10-29T06:22:57;12.15;;;5.07;;
40827;SDS011;26549;50.918;5.338;2022-10-29T06:25:24;12.55;;;5.93;;
40827;SDS011;26549;50.918;5.338;2022-10-29T06:27:57;8.73;;;5.53;;
40827;SDS011;26549;50.918;5.338;2022-10-29T06:30:23;11.25;;;4.93;;
40827;SDS011;26549;50.918;5.338;2022-10-29T06:35:18;10.38;;;4.80;;
40827;SDS011;26549;50.918;5.338;2022-10-29T06:37:44;12.88;;;5.05;;
40827;SDS011;26549;50.918;5.338;2022-10-29T06:40:09;11.88;;;5.15;;
40827;SDS011;26549;50.918;5.338;2022-10-29T06:42:37;11.52;;;5.72;;
40827;SDS011;26549;50.918;5.338;2022-10-29T06:45:03;11.70;;;4.45;;
40827;SDS011;26549;50.918;5.338;2022-10-29T06:47:29;12.98;;;6.30;;
40827;SDS011;26549;50.918;5.338;2022-10-29T06:49:55;13.10;;;3.92;;
40827;SDS011;26549;50.918;5.338;2022-10-29T06:52:22;10.80;;;5.30;;
40827;SDS011;26549;50.918;5.338;2022-10-29T06:54:48;11.30;;;4.63;;
40827;SDS011;26549;50.918;5.338;2022-10-29T06:57:14;10.93;;;5.88;;
40827;SDS011;26549;50.918;5.338;2022-10-29T06:59:45;12.75;;;4.90;;
40827;SDS011;26549;50.918;5.338;2022-10-29T07:02:12;12.73;;;5.47;;
40827;SDS011;26549;50.918;5.338;2022-10-29T07:04:38;10.65;;;5.15;;
40827;SDS011;26549;50.918;5.338;2022-10-29T07:07:03;15.82;;;5.75;;
40827;SDS011;26549;50.918;5.338;2022-10-29T07:09:29;9.60;;;4.10;;
40827;SDS011;26549;50.918;5.338;2022-10-29T07:11:56;11.70;;;5.88;;
40827;SDS011;26549;50.918;5.338;2022-10-29T07:14:22;10.52;;;4.38;;
40827;SDS011;26549;50.918;5.338;2022-10-29T07:16:50;11.38;;;4.45;;
40827;SDS011;26549;50.918;5.338;2022-10-29T07:19:17;9.52;;;5.07;;
40827;SDS011;26549;50.918;5.338;2022-10-29T07:21:43;11.25;;;4.68;;
40827;SDS011;26549;50.918;5.338;2022-10-29T07:24:09;17.17;;;5.35;;
40827;SDS011;26549;50.918;5.338;2022-10-29T07:26:35;14.65;;;5.53;;
40827;SDS011;26549;50.918;5.338;2022-10-29T07:29:01;20.95;;;6.65;;
40827;SDS011;26549;50.918;5.338;2022-10-29T07:31:28;17.35;;;5.07;;
40827;SDS011;26549;50.918;5.338;2022-10-29T07:33:54;10.95;;;4.88;;
40827;SDS011;26549;50.918;5.338;2022-10-29T07:36:22;12.80;;;5.32;;
40827;SDS011;26549;50.918;5.338;2022-10-29T07:38:48;13.10;;;4.85;;
40827;SDS011;26549;50.918;5.338;2022-10-29T07:41:14;13.52;;;5.28;;
40827;SDS011;26549;50.918;5.338;2022-10-29T07:43:40;18.08;;;5.68;;
40827;SDS011;26549;50.918;5.338;2022-10-29T07:46:06;13.48;;;5.32;;
40827;SDS011;26549;50.918;5.338;2022-10-29T07:48:32;13.25;;;5.80;;
40827;SDS011;26549;50.918;5.338;2022-10-29T07:50:59;12.00;;;4.70;;
40827;SDS011;26549;50.918;5.338;2022-10-29T07:53:25;13.25;;;5.32;;
40827;SDS011;26549;50.918;5.338;2022-10-29T07:55:51;10.75;;;4.63;;
40827;SDS011;26549;50.918;5.338;2022-10-29T07:58:17;11.02;;;6.00;;
40827;SDS011;26549;50.918;5.338;2022-10-29T08:00:43;8.82;;;4.30;;
40827;SDS011;26549;50.918;5.338;2022-10-29T08:03:09;11.55;;;5.00;;
40827;SDS011;26549;50.918;5.338;2022-10-29T08:05:36;10.70;;;4.38;;
40827;SDS011;26549;50.918;5.338;2022-10-29T08:08:02;16.95;;;5.00;;
40827;SDS011;26549;50.918;5.338;2022-10-29T08:10:29;9.80;;;5.85;;
40827;SDS011;26549;50.918;5.338;2022-10-29T08:12:56;12.90;;;4.15;;
40827;SDS011;26549;50.918;5.338;2022-10-29T08:15:23;14.23;;;5.55;;
40827;SDS011;26549;50.918;5.338;2022-10-29T08:17:50;12.40;;;4.60;;
40827;SDS011;26549;50.918;5.338;2022-10-29T08:20:16;9.25;;;4.30;;
40827;SDS011;26549;50.918;5.338;2022-10-29T08:22:42;11.18;;;4.07;;
40827;SDS011;26549;50.918;5.338;2022-10-29T08:25:08;12.23;;;3.85;;
40827;SDS011;26549;50.918;5.338;2022-10-29T08:27:36;11.93;;;5.80;;
40827;SDS011;26549;50.918;5.338;2022-10-29T08:30:02;11.60;;;4.53;;
40827;SDS011;26549;50.918;5.338;2022-10-29T08:32:28;11.82;;;3.95;;
40827;SDS011;26549;50.918;5.338;2022-10-29T08:34:54;7.40;;;4.35;;
40827;SDS011;26549;50.918;5.338;2022-10-29T08:37:20;10.07;;;3.83;;
40827;SDS011;26549;50.918;5.338;2022-10-29T08:39:46;10.68;;;4.10;;
40827;SDS011;26549;50.918;5.338;2022-10-29T08:56:21;14.50;;;3.47;;
40827;SDS011;26549;50.918;5.338;2022-10-29T09:01:19;10.50;;;2.97;;
40827;SDS011;26549;50.918;5.338;2022-10-29T09:03:46;10.98;;;5.00;;
40827;SDS011;26549;50.918;5.338;2022-10-29T09:06:13;5.45;;;3.30;;
40827;SDS011;26549;50.918;5.338;2022-10-29T09:26:47;7.13;;;3.38;;
40827;SDS011;26549;50.918;5.338;2022-10-29T09:34:49;11.82;;;3.00;;
40827;SDS011;26549;50.918;5.338;2022-10-29T09:37:19;7.63;;;4.03;;
40827;SDS011;26549;50.918;5.338;2022-10-29T09:39:54;10.50;;;3.10;;
40827;SDS011;26549;50.918;5.338;2022-10-29T09:42:25;10.25;;;3.55;;
40827;SDS011;26549;50.918;5.338;2022-10-29T09:45:02;10.63;;;3.63;;
40827;SDS011;26549;50.918;5.338;2022-10-29T09:52:49;15.13;;;4.57;;
40827;SDS011;26549;50.918;5.338;2022-10-29T09:55:28;13.38;;;3.63;;
40827;SDS011;26549;50.918;5.338;2022-10-29T09:58:03;8.40;;;3.88;;
40827;SDS011;26549;50.918;5.338;2022-10-29T10:00:31;9.02;;;4.00;;
40827;SDS011;26549;50.918;5.338;2022-10-29T10:03:10;7.15;;;3.58;;
40827;SDS011;26549;50.918;5.338;2022-10-29T10:08:32;9.50;;;3.30;;
40827;SDS011;26549;50.918;5.338;2022-10-29T10:11:03;12.40;;;3.08;;
40827;SDS011;26549;50.918;5.338;2022-10-29T10:13:35;12.90;;;3.35;;
40827;SDS011;26549;50.918;5.338;2022-10-29T10:16:14;12.02;;;4.72;;
40827;SDS011;26549;50.918;5.338;2022-10-29T10:18:56;7.45;;;3.20;;
40827;SDS011;26549;50.918;5.338;2022-10-29T10:21:26;14.60;;;3.85;;
40827;SDS011;26549;50.918;5.338;2022-10-29T10:23:53;11.85;;;2.70;;
40827;SDS011;26549;50.918;5.338;2022-10-29T10:26:32;14.13;;;3.03;;
40827;SDS011;26549;50.918;5.338;2022-10-29T10:29:14;10.68;;;3.13;;
40827;SDS011;26549;50.918;5.338;2022-10-29T10:34:15;8.23;;;3.10;;
40827;SDS011;26549;50.918;5.338;2022-10-29T10:36:46;9.88;;;3.42;;
40827;SDS011;26549;50.918;5.338;2022-10-29T10:39:21;8.90;;;3.38;;
40827;SDS011;26549;50.918;5.338;2022-10-29T10:42:00;14.30;;;3.55;;
40827;SDS011;26549;50.918;5.338;2022-10-29T10:44:29;8.98;;;2.72;;
40827;SDS011;26549;50.918;5.338;2022-10-29T10:46:56;8.50;;;3.33;;
40827;SDS011;26549;50.918;5.338;2022-10-29T10:49:35;11.40;;;2.92;;
40827;SDS011;26549;50.918;5.338;2022-10-29T10:52:14;12.50;;;2.65;;
40827;SDS011;26549;50.918;5.338;2022-10-29T10:55:06;14.00;;;2.88;;
40827;SDS011;26549;50.918;5.338;2022-10-29T10:57:41;15.38;;;2.80;;
40827;SDS011;26549;50.918;5.338;2022-10-29T11:00:44;9.65;;;2.90;;
40827;SDS011;26549;50.918;5.338;2022-10-29T11:03:27;10.55;;;3.95;;
40827;SDS011;26549;50.918;5.338;2022-10-29T11:06:03;6.25;;;3.10;;
40827;SDS011;26549;50.918;5.338;2022-10-29T11:11:12;13.05;;;2.50;;
40827;SDS011;26549;50.918;5.338;2022-10-29T11:13:49;13.93;;;3.33;;
40827;SDS011;26549;50.918;5.338;2022-10-29T11:16:17;17.25;;;3.40;;
40827;SDS011;26549;50.918;5.338;2022-10-29T11:19:03;13.48;;;2.70;;
40827;SDS011;26549;50.918;5.338;2022-10-29T11:21:44;6.43;;;2.40;;
40827;SDS011;26549;50.918;5.338;2022-10-29T11:27:02;16.02;;;3.47;;
40827;SDS011;26549;50.918;5.338;2022-10-29T11:29:41;10.40;;;3.45;;
40827;SDS011;26549;50.918;5.338;2022-10-29T11:32:28;16.77;;;3.63;;
40827;SDS011;26549;50.918;5.338;2022-10-29T11:35:09;13.00;;;3.65;;
40827;SDS011;26549;50.918;5.338;2022-10-29T11:37:47;11.02;;;2.55;;
40827;SDS011;26549;50.918;5.338;2022-10-29T11:43:11;10.95;;;2.47;;
40827;SDS011;26549;50.918;5.338;2022-10-29T11:45:44;12.13;;;3.72;;
40827;SDS011;26549;50.918;5.338;2022-10-29T11:51:27;11.95;;;2.70;;
40827;SDS011;26549;50.918;5.338;2022-10-29T11:53:57;11.00;;;2.70;;
40827;SDS011;26549;50.918;5.338;2022-10-29T11:56:46;9.13;;;3.60;;
40827;SDS011;26549;50.918;5.338;2022-10-29T12:13:03;10.23;;;4.15;;
40827;SDS011;26549;50.918;5.338;2022-10-29T12:15:44;8.88;;;2.63;;
40827;SDS011;26549;50.918;5.338;2022-10-29T12:18:39;8.95;;;2.75;;
40827;SDS011;26549;50.918;5.338;2022-10-29T12:31:59;9.98;;;2.92;;
40827;SDS011;26549;50.918;5.338;2022-10-29T12:40:27;7.07;;;3.50;;
40827;SDS011;26549;50.918;5.338;2022-10-29T12:42:58;9.80;;;3.08;;
40827;SDS011;26549;50.918;5.338;2022-10-29T12:50:57;10.55;;;2.78;;
40827;SDS011;26549;50.918;5.338;2022-10-29T12:56:03;11.75;;;2.95;;
40827;SDS011;26549;50.918;5.338;2022-10-29T13:11:51;6.90;;;2.40;;
40827;SDS011;26549;50.918;5.338;2022-10-29T13:14:21;7.43;;;2.65;;
40827;SDS011;26549;50.918;5.338;2022-10-29T13:16:57;8.18;;;2.58;;
40827;SDS011;26549;50.918;5.338;2022-10-29T13:24:39;9.18;;;2.17;;
40827;SDS011;26549;50.918;5.338;2022-10-29T13:32:34;8.98;;;2.65;;
40827;SDS011;26549;50.918;5.338;2022-10-29T13:35:36;18.60;;;3.97;;
40827;SDS011;26549;50.918;5.338;2022-10-29T13:43:08;10.73;;;3.67;;
40827;SDS011;26549;50.918;5.338;2022-10-29T13:45:35;9.13;;;2.63;;
40827;SDS011;26549;50.918;5.338;2022-10-29T13:48:04;12.40;;;3.13;;
40827;SDS011;26549;50.918;5.338;2022-10-29T13:50:36;10.90;;;2.85;;
40827;SDS011;26549;50.918;5.338;2022-10-29T13:53:04;9.80;;;3.22;;
40827;SDS011;26549;50.918;5.338;2022-10-29T13:55:31;12.80;;;5.03;;
40827;SDS011;26549;50.918;5.338;2022-10-29T13:58:05;21.20;;;5.93;;
40827;SDS011;26549;50.918;5.338;2022-10-29T14:00:38;11.15;;;4.15;;
40827;SDS011;26549;50.918;5.338;2022-10-29T14:03:17;16.95;;;3.92;;
40827;SDS011;26549;50.918;5.338;2022-10-29T14:06:11;6.68;;;2.53;;
40827;SDS011;26549;50.918;5.338;2022-10-29T14:08:43;12.27;;;2.60;;
40827;SDS011;26549;50.918;5.338;2022-10-29T14:11:13;7.82;;;3.05;;
40827;SDS011;26549;50.918;5.338;2022-10-29T14:16:13;11.90;;;2.55;;
40827;SDS011;26549;50.918;5.338;2022-10-29T14:21:26;10.32;;;3.08;;
40827;SDS011;26549;50.918;5.338;2022-10-29T14:24:03;9.38;;;2.33;;
40827;SDS011;26549;50.918;5.338;2022-10-29T14:26:31;13.05;;;3.67;;
40827;SDS011;26549;50.918;5.338;2022-10-29T14:29:17;19.52;;;3.13;;
40827;SDS011;26549;50.918;5.338;2022-10-29T14:31:46;10.13;;;2.85;;
40827;SDS011;26549;50.918;5.338;2022-10-29T14:34:27;8.02;;;3.17;;
40827;SDS011;26549;50.918;5.338;2022-10-29T14:37:03;10.77;;;3.17;;
40827;SDS011;26549;50.918;5.338;2022-10-29T14:39:41;13.07;;;4.57;;
40827;SDS011;26549;50.918;5.338;2022-10-29T14:42:20;11.48;;;5.07;;
40827;SDS011;26549;50.918;5.338;2022-10-29T14:44:56;13.45;;;4.97;;
40827;SDS011;26549;50.918;5.338;2022-10-29T14:47:28;13.20;;;3.97;;
40827;SDS011;26549;50.918;5.338;2022-10-29T14:49:57;11.93;;;4.22;;
40827;SDS011;26549;50.918;5.338;2022-10-29T14:54:55;11.13;;;3.45;;
40827;SDS011;26549;50.918;5.338;2022-10-29T14:57:33;11.63;;;2.60;;
40827;SDS011;26549;50.918;5.338;2022-10-29T15:00:04;12.77;;;3.65;;
40827;SDS011;26549;50.918;5.338;2022-10-29T15:02:35;11.13;;;4.85;;
40827;SDS011;26549;50.918;5.338;2022-10-29T15:05:04;8.20;;;3.50;;
40827;SDS011;26549;50.918;5.338;2022-10-29T15:07:47;6.75;;;2.58;;
40827;SDS011;26549;50.918;5.338;2022-10-29T15:10:22;10.40;;;3.10;;
40827;SDS011;26549;50.918;5.338;2022-10-29T15:12:49;14.43;;;3.10;;
40827;SDS011;26549;50.918;5.338;2022-10-29T15:17:59;10.10;;;2.80;;
40827;SDS011;26549;50.918;5.338;2022-10-29T15:23:25;8.50;;;2.90;;
40827;SDS011;26549;50.918;5.338;2022-10-29T15:26:04;11.05;;;3.75;;
40827;SDS011;26549;50.918;5.338;2022-10-29T15:28:36;10.98;;;4.38;;
40827;SDS011;26549;50.918;5.338;2022-10-29T15:31:04;8.13;;;3.20;;
40827;SDS011;26549;50.918;5.338;2022-10-29T15:33:31;11.68;;;3.42;;
40827;SDS011;26549;50.918;5.338;2022-10-29T15:36:00;12.10;;;3.63;;
40827;SDS011;26549;50.918;5.338;2022-10-29T15:43:47;15.95;;;4.03;;
40827;SDS011;26549;50.918;5.338;2022-10-29T15:46:29;13.30;;;3.30;;
40827;SDS011;26549;50.918;5.338;2022-10-29T15:48:59;12.48;;;3.10;;
40827;SDS011;26549;50.918;5.338;2022-10-29T15:51:25;4.97;;;2.67;;
40827;SDS011;26549;50.918;5.338;2022-10-29T15:53:56;12.63;;;2.70;;
40827;SDS011;26549;50.918;5.338;2022-10-29T15:56:26;13.05;;;2.60;;
40827;SDS011;26549;50.918;5.338;2022-10-29T15:58:54;13.77;;;3.78;;
40827;SDS011;26549;50.918;5.338;2022-10-29T16:01:21;5.53;;;2.50;;
40827;SDS011;26549;50.918;5.338;2022-10-29T16:04:07;8.70;;;2.35;;
40827;SDS011;26549;50.918;5.338;2022-10-29T16:06:36;8.93;;;3.30;;
40827;SDS011;26549;50.918;5.338;2022-10-29T16:09:02;8.27;;;3.03;;
40827;SDS011;26549;50.918;5.338;2022-10-29T16:11:28;7.40;;;2.90;;
40827;SDS011;26549;50.918;5.338;2022-10-29T16:13:54;9.88;;;3.00;;
40827;SDS011;26549;50.918;5.338;2022-10-29T16:16:21;6.68;;;2.30;;
40827;SDS011;26549;50.918;5.338;2022-10-29T16:18:48;7.55;;;2.58;;
40827;SDS011;26549;50.918;5.338;2022-10-29T16:21:19;10.35;;;2.75;;
40827;SDS011;26549;50.918;5.338;2022-10-29T16:24:02;6.60;;;2.90;;
40827;SDS011;26549;50.918;5.338;2022-10-29T16:26:46;5.68;;;3.00;;
40827;SDS011;26549;50.918;5.338;2022-10-29T16:29:17;7.95;;;2.47;;
40827;SDS011;26549;50.918;5.338;2022-10-29T16:31:43;9.00;;;3.03;;
40827;SDS011;26549;50.918;5.338;2022-10-29T16:34:10;7.53;;;3.15;;
40827;SDS011;26549;50.918;5.338;2022-10-29T16:36:40;14.05;;;2.90;;
40827;SDS011;26549;50.918;5.338;2022-10-29T16:39:06;11.98;;;2.78;;
40827;SDS011;26549;50.918;5.338;2022-10-29T16:41:32;10.43;;;3.47;;
40827;SDS011;26549;50.918;5.338;2022-10-29T16:43:59;11.40;;;3.13;;
40827;SDS011;26549;50.918;5.338;2022-10-29T16:46:25;10.38;;;2.83;;
40827;SDS011;26549;50.918;5.338;2022-10-29T16:48:51;8.75;;;2.40;;
40827;SDS011;26549;50.918;5.338;2022-10-29T16:51:17;11.75;;;2.80;;
40827;SDS011;26549;50.918;5.338;2022-10-29T16:53:43;9.70;;;2.90;;
40827;SDS011;26549;50.918;5.338;2022-10-29T16:56:09;10.43;;;3.85;;
40827;SDS011;26549;50.918;5.338;2022-10-29T16:58:35;6.43;;;3.20;;
40827;SDS011;26549;50.918;5.338;2022-10-29T17:01:05;7.20;;;2.60;;
40827;SDS011;26549;50.918;5.338;2022-10-29T17:03:34;3.67;;;2.20;;
40827;SDS011;26549;50.918;5.338;2022-10-29T17:06:04;17.20;;;4.72;;
40827;SDS011;26549;50.918;5.338;2022-10-29T17:08:32;6.38;;;2.60;;
40827;SDS011;26549;50.918;5.338;2022-10-29T17:10:59;6.68;;;2.90;;
40827;SDS011;26549;50.918;5.338;2022-10-29T17:13:26;9.95;;;2.63;;
40827;SDS011;26549;50.918;5.338;2022-10-29T17:15:52;14.50;;;2.97;;
40827;SDS011;26549;50.918;5.338;2022-10-29T17:18:18;8.90;;;3.45;;
40827;SDS011;26549;50.918;5.338;2022-10-29T17:20:57;7.10;;;2.85;;
40827;SDS011;26549;50.918;5.338;2022-10-29T17:23:28;9.65;;;3.08;;
40827;SDS011;26549;50.918;5.338;2022-10-29T17:25:59;11.13;;;3.30;;
40827;SDS011;26549;50.918;5.338;2022-10-29T17:28:34;9.40;;;2.83;;
40827;SDS011;26549;50.918;5.338;2022-10-29T17:31:07;6.63;;;2.75;;
40827;SDS011;26549;50.918;5.338;2022-10-29T17:33:46;7.90;;;2.83;;
40827;SDS011;26549;50.918;5.338;2022-10-29T17:36:21;8.93;;;3.40;;
40827;SDS011;26549;50.918;5.338;2022-10-29T17:38:53;7.38;;;3.20;;
40827;SDS011;26549;50.918;5.338;2022-10-29T17:41:19;10.93;;;3.47;;
40827;SDS011;26549;50.918;5.338;2022-10-29T17:43:55;6.82;;;3.70;;
40827;SDS011;26549;50.918;5.338;2022-10-29T17:46:24;8.07;;;3.03;;
40827;SDS011;26549;50.918;5.338;2022-10-29T17:49:02;10.32;;;2.55;;
40827;SDS011;26549;50.918;5.338;2022-10-29T17:51:34;7.97;;;3.50;;
40827;SDS011;26549;50.918;5.338;2022-10-29T17:54:00;11.30;;;3.53;;
40827;SDS011;26549;50.918;5.338;2022-10-29T17:56:26;6.35;;;2.72;;
40827;SDS011;26549;50.918;5.338;2022-10-29T17:58:53;11.82;;;4.07;;
40827;SDS011;26549;50.918;5.338;2022-10-29T18:01:19;4.75;;;2.65;;
40827;SDS011;26549;50.918;5.338;2022-10-29T18:03:45;16.25;;;4.10;;
40827;SDS011;26549;50.918;5.338;2022-10-29T18:06:11;13.07;;;4.07;;